Main page
METAR-TAF:

METAR-TAF

Airports :

Ahvaz International Airport

Ahvaz, Iran

latitude: 31-20N, longitude: 048-40E, elevation: 20 m

Current weather observation

The report was made 34 minutes ago, at 11:00 UTC
Wind 8 kt from the West
Temperature 48°C
Humidity 5%
Pressure 991 hPa
Visibility 10 km or more
no clouds below 1500 m and no cumulonimbus

METAR: OIAW 011100Z 28008KT CAVOK 48/M01 Q0991

Time: 16:04 (11:34 UTC)

Forecast

The report was made 6 hours and 4 minutes ago, at 05:30 UTC
Forecast valid from 01 at 06 UTC to 02 at 12 UTC
Wind 8 kt from the West
Visibility: 7000 m
Temporary
from 01 at 12 UTC to 01 at 21 UTC
Wind 22 kt from the West
Visibility: 4000 m
sand
Temporary
from 02 at 06 UTC to 02 at 12 UTC
Wind 28 kt from the Northwest
Visibility: 3000 m
sand
Probability 30%
between 32 and 03 UTC
Visibility: 1000 m
sand

TAF: OIAW 010530Z 0106/0212 27008KT 7000 NSC TEMPO 0112/0121 28022KT 4000 SA NSC TEMPO 0206/0212 31028KT 3000 SA NSC PROB30 32030KT 1000 SA

Weather observations and forecasts of more than 4000 airports (METAR and TAF reports).

The available stations are represented by yellow and red dots on the map.

Hover mouse over dot to see the name of the station.

Then click to see weather observations and forecasts.

To change the map : click on the green buttons with a black cross to zoom in, on the green button with a dash to zoom out, or on the green arrows for adjacent maps.


METAR-TAF: